SBFZ Airport Information

Runway Information
Runway 13 Length 8350 ft width 148 ft
Elevation 82 ft Threshold 0 ft Heading 105
Runway 31 Length 8350 ft Width 148 ft
Elevation 65 ft Threshold 0 ft Heading 285
Airport Frequencies
Type APP Name FORTALEZA Frequency 133 MHZ
Type ATIS Name ATIS Frequency 127.7 MHZ
Type GND Name GND Frequency 121.95 MHZ
Type OPS Name FORTALEZA Frequency 122.5 MHZ
Type TWR Name FORTALEZA Frequency 129 MHZ
Airport Navaids
Type VOR-DME Name Fortaleza Frequency 114100 KHZ
Type NDB Name Fortaleza Frequency 260 KHZ
Airport Weather Information & NOTAM
ADDS - METARS form results

(1533 UTC 21 April 2018)
 
METAR text: SBFZ 211500Z 09014KT 9999 SCT023 30/24 Q1011
Conditions at: SBFZ (FORTALEZA/PINTO , BR) observed 1500 UTC 21 April 2018
Temperature: 30.0°C (86°F)
Dewpoint: 24.0°C (75°F) [RH = 70%]
Pressure (altimeter): 29.85 inches Hg (1011.0 mb)
Winds: from the E (90 degrees) at 16 MPH (14 knots; 7.3 m/s)
Visibility: 6 or more miles (10+ km)
Ceiling: at least 12,000 feet AGL
Clouds: scattered clouds at 2300 feet AGL
Weather: no significant weather observed at this time